Time;durP1;ratioP1;P1;durP2;ratioP2;P2;SDS_P1;SDS_P2;PMS_P1;PMS_P2;Temp;Humidity;BMP_temperature;BMP_pressure;BME280_temperature;BME280_humidity;BME280_pressure;Samples;Min_cycle;Max_cycle;Signal;HPM_P1;HPM_P2
2022/06/17 00:01:22;;;;;;;4.22;2.03;;;23.10;54.70;;;;;;4430270;32;20201;-68
2022/06/17 00:03:51;;;;;;;3.05;1.88;;;23.10;54.70;;;;;;4430341;32;20115;-68
2022/06/17 00:06:20;;;;;;;2.00;1.55;;;23.10;54.70;;;;;;4430047;32;20125;-68
2022/06/17 00:08:49;;;;;;;4.20;1.75;;;23.10;54.70;;;;;;4431550;32;20078;-68
2022/06/17 00:11:24;;;;;;;3.30;1.60;;;23.00;54.60;;;;;;4431810;32;20585;-68
2022/06/17 00:13:51;;;;;;;3.38;1.80;;;23.00;54.60;;;;;;4431780;32;20168;-68
2022/06/17 00:16:20;;;;;;;3.97;1.85;;;23.00;54.60;;;;;;4431153;32;20094;-68
2022/06/17 00:18:46;;;;;;;3.85;1.90;;;23.00;54.60;;;;;;4431866;32;20075;-68
2022/06/17 00:21:27;;;;;;;4.70;2.08;;;23.00;54.60;;;;;;4430635;32;20192;-68
2022/06/17 00:23:53;;;;;;;3.42;1.92;;;23.00;54.60;;;;;;4430142;32;20062;-68
2022/06/17 00:26:20;;;;;;;3.25;1.90;;;23.00;54.60;;;;;;4429756;32;20066;-68
2022/06/17 00:28:48;;;;;;;3.45;1.40;;;23.00;54.60;;;;;;4429412;32;20164;-68
2022/06/17 00:31:14;;;;;;;3.33;1.80;;;23.00;54.60;;;;;;4429714;32;20078;-68
2022/06/17 00:33:41;;;;;;;3.58;1.50;;;23.00;54.60;;;;;;4429441;32;20118;-68
2022/06/17 00:36:12;;;;;;;2.67;1.63;;;23.00;54.60;;;;;;4429759;32;20067;-68
2022/06/17 00:38:38;;;;;;;2.78;1.35;;;23.00;54.60;;;;;;4429768;32;20082;-68
2022/06/17 00:41:27;;;;;;;2.40;1.73;;;23.00;54.60;;;;;;4415880;32;20062;-68
2022/06/17 00:43:53;;;;;;;3.35;1.80;;;23.00;54.50;;;;;;4429934;32;20233;-68
2022/06/17 00:46:25;;;;;;;3.20;1.60;;;22.90;54.50;;;;;;4429676;32;20396;-68
2022/06/17 00:49:16;;;;;;;2.88;1.52;;;23.00;54.60;;;;;;4429238;32;20125;-68
2022/06/17 00:52:03;;;;;;;4.18;1.55;;;22.90;54.40;;;;;;4429272;32;20527;-68
2022/06/17 00:54:39;;;;;;;4.25;1.67;;;23.00;54.50;;;;;;4429783;32;20393;-68
2022/06/17 00:57:22;;;;;;;2.63;1.67;;;22.90;54.50;;;;;;4429936;32;20090;-68
2022/06/17 01:00:06;;;;;;;2.58;1.55;;;22.90;54.50;;;;;;4429329;32;20078;-68
2022/06/17 01:02:36;;;;;;;2.08;1.35;;;22.90;54.40;;;;;;4429505;32;20642;-68
2022/06/17 01:05:03;;;;;;;2.08;1.70;;;22.90;54.50;;;;;;4429120;32;20102;-68
2022/06/17 01:07:36;;;;;;;2.60;1.35;;;22.90;54.50;;;;;;4429716;32;20672;-68
2022/06/17 01:10:09;;;;;;;2.22;1.27;;;22.90;54.50;;;;;;4429511;32;20066;-68
2022/06/17 01:12:44;;;;;;;2.33;1.48;;;22.90;54.50;;;;;;4429929;32;20381;-68
2022/06/17 01:15:16;;;;;;;2.92;1.55;;;22.90;54.50;;;;;;4429771;32;20102;-71
2022/06/17 01:17:42;;;;;;;2.28;1.60;;;22.90;54.40;;;;;;4429489;32;20066;-68
2022/06/17 01:20:12;;;;;;;4.60;1.30;;;22.90;54.50;;;;;;4429343;32;20515;-68
2022/06/17 01:22:50;;;;;;;3.03;1.70;;;22.90;54.50;;;;;;4429600;32;20101;-68
2022/06/17 01:25:22;;;;;;;4.28;1.90;;;22.90;54.50;;;;;;4429432;32;20216;-68
2022/06/17 01:28:00;;;;;;;2.40;1.40;;;22.90;54.50;;;;;;4429666;32;20480;-68
2022/06/17 01:30:28;;;;;;;2.00;1.20;;;22.90;54.50;;;;;;4429455;32;20156;-68
2022/06/17 01:33:25;;;;;;;3.10;1.58;;;22.80;54.40;;;;;;4429002;32;20183;-68
2022/06/17 01:35:57;;;;;;;2.20;1.50;;;22.90;54.40;;;;;;4416764;32;20086;-68
2022/06/17 01:38:23;;;;;;;2.40;1.50;;;22.80;54.50;;;;;;4429099;32;20082;-68
2022/06/17 01:40:52;;;;;;;2.67;1.48;;;22.80;54.40;;;;;;4429252;32;20070;-68
2022/06/17 01:43:21;;;;;;;2.38;1.60;;;22.80;54.40;;;;;;4429139;32;20078;-68
2022/06/17 01:45:54;;;;;;;2.47;1.63;;;22.80;54.50;;;;;;4429231;32;20086;-68
2022/06/17 01:48:24;;;;;;;2.70;1.70;;;22.80;54.50;;;;;;4429641;32;20182;-68
2022/06/17 01:50:52;;;;;;;2.75;1.75;;;22.80;54.50;;;;;;4429344;32;20093;-68
2022/06/17 01:53:21;;;;;;;1.98;1.33;;;22.80;54.40;;;;;;4429976;32;20087;-68
2022/06/17 01:55:55;;;;;;;2.38;1.38;;;22.80;54.50;;;;;;4431953;32;20089;-68
2022/06/17 01:58:43;;;;;;;1.95;1.40;;;22.80;54.50;;;;;;4431971;32;20291;-68
2022/06/17 02:01:10;;;;;;;2.20;1.38;;;22.80;54.40;;;;;;4432101;32;20229;-69
2022/06/17 02:03:42;;;;;;;2.00;1.30;;;22.80;54.40;;;;;;4431605;32;20173;-68
2022/06/17 02:06:14;;;;;;;2.78;1.60;;;22.80;54.40;;;;;;4431832;32;20067;-68
2022/06/17 02:08:41;;;;;;;1.83;1.40;;;22.80;55.40;;;;;;4431938;32;20264;-68
2022/06/17 02:11:08;;;;;;;2.70;1.63;;;22.80;54.50;;;;;;4431790;32;20568;-68
2022/06/17 02:13:34;;;;;;;3.13;1.38;;;22.80;54.50;;;;;;4431348;32;20548;-69
2022/06/17 02:16:03;;;;;;;2.17;1.30;;;22.80;54.50;;;;;;4417896;32;20125;-69
2022/06/17 02:18:30;;;;;;;3.17;1.52;;;22.80;54.50;;;;;;4431786;32;20272;-68
2022/06/17 02:20:59;;;;;;;2.10;1.40;;;22.80;54.50;;;;;;4417659;32;20082;-68
2022/06/17 02:23:27;;;;;;;1.95;1.35;;;22.70;54.50;;;;;;4404677;32;20148;-68
2022/06/17 02:25:55;;;;;;;2.15;1.40;;;22.70;54.40;;;;;;4431580;32;20125;-68
2022/06/17 02:28:24;;;;;;;3.08;1.73;;;22.70;54.50;;;;;;4431537;32;20082;-68
2022/06/17 02:30:51;;;;;;;2.38;1.58;;;22.70;54.40;;;;;;4431265;32;20082;-68
2022/06/17 02:33:18;;;;;;;2.05;1.30;;;22.70;54.50;;;;;;4431198;32;20090;-68
2022/06/17 02:35:54;;;;;;;2.22;1.10;;;22.70;54.50;;;;;;4431325;32;20090;-68
2022/06/17 02:38:25;;;;;;;1.45;1.30;;;22.70;54.50;;;;;;4431625;32;20067;-68
2022/06/17 02:41:00;;;;;;;2.38;1.40;;;22.70;54.50;;;;;;4431382;32;20102;-68
2022/06/17 02:43:28;;;;;;;1.83;1.38;;;22.70;54.50;;;;;;4417173;32;20562;-68
2022/06/17 02:46:15;;;;;;;1.90;1.30;;;22.70;54.50;;;;;;4431095;32;20416;-68
2022/06/17 02:49:06;;;;;;;2.63;1.35;;;22.70;54.50;;;;;;4431143;32;20129;-68
2022/06/17 02:51:36;;;;;;;1.42;1.20;;;22.70;54.50;;;;;;4430622;32;20074;-70
2022/06/17 02:54:05;;;;;;;3.17;1.27;;;22.60;54.50;;;;;;4430711;32;20168;-68
2022/06/17 02:56:33;;;;;;;1.90;1.40;;;22.60;54.50;;;;;;4431270;32;20196;-68
2022/06/17 02:59:20;;;;;;;2.42;1.40;;;22.60;54.50;;;;;;4430948;32;20085;-68
2022/06/17 03:01:48;;;;;;;2.35;1.50;;;22.60;54.50;;;;;;4431269;32;20408;-68
2022/06/17 03:04:24;;;;;;;2.00;1.30;;;22.60;54.50;;;;;;4430836;32;20212;-68
2022/06/17 03:06:50;;;;;;;1.42;1.10;;;22.60;54.50;;;;;;4430868;32;20082;-68
2022/06/17 03:09:20;;;;;;;2.22;1.42;;;22.60;54.50;;;;;;4431043;32;20062;-70
2022/06/17 03:11:54;;;;;;;2.15;1.23;;;22.60;54.50;;;;;;4430715;32;20094;-68
2022/06/17 03:14:21;;;;;;;2.05;1.30;;;22.60;54.50;;;;;;4431166;32;20078;-68
2022/06/17 03:16:52;;;;;;;1.38;0.90;;;22.60;54.50;;;;;;4430948;32;20227;-68
2022/06/17 03:19:18;;;;;;;2.95;1.40;;;22.60;54.50;;;;;;4430654;32;20204;-68
2022/06/17 03:21:44;;;;;;;1.70;1.20;;;22.60;55.50;;;;;;4430627;32;20094;-68
2022/06/17 03:24:43;;;;;;;1.10;0.93;;;22.60;54.50;;;;;;4430574;32;20074;-68
2022/06/17 03:27:19;;;;;;;1.40;1.23;;;22.60;54.50;;;;;;4430895;32;20467;-68
2022/06/17 03:29:48;;;;;;;1.92;1.30;;;22.60;54.60;;;;;;4430729;32;20089;-71
2022/06/17 03:32:22;;;;;;;1.58;1.08;;;22.60;54.60;;;;;;4430450;32;20088;-68
2022/06/17 03:34:51;;;;;;;1.58;1.30;;;22.50;54.50;;;;;;4430493;32;20086;-68
2022/06/17 03:37:55;;;;;;;1.42;0.90;;;22.50;54.60;;;;;;4430456;32;20551;-68
2022/06/17 03:40:27;;;;;;;1.67;1.17;;;22.50;54.50;;;;;;4412704;32;20551;-68
2022/06/17 03:43:08;;;;;;;1.35;1.08;;;22.50;54.60;;;;;;4430575;32;20093;-68
2022/06/17 03:45:50;;;;;;;2.47;1.20;;;22.50;54.60;;;;;;4430671;32;20156;-68
2022/06/17 03:48:40;;;;;;;2.00;1.20;;;22.50;54.50;;;;;;4430372;32;20083;-68
2022/06/17 03:51:15;;;;;;;1.50;1.10;;;22.50;54.50;;;;;;4430491;32;20424;-68
2022/06/17 03:53:43;;;;;;;1.70;1.20;;;22.50;54.60;;;;;;4430521;32;20581;-68
2022/06/17 03:56:16;;;;;;;1.40;1.20;;;22.50;54.60;;;;;;4430137;32;20532;-68
2022/06/17 03:58:43;;;;;;;2.08;1.17;;;22.50;54.70;;;;;;4430457;32;20086;-68
2022/06/17 04:01:24;;;;;;;1.73;0.98;;;22.50;54.70;;;;;;4430332;32;20204;-68
2022/06/17 04:03:56;;;;;;;1.67;1.20;;;22.50;54.70;;;;;;4430392;32;20226;-68
2022/06/17 04:06:33;;;;;;;2.38;1.20;;;22.50;54.70;;;;;;4416366;32;20078;-68
2022/06/17 04:09:03;;;;;;;1.45;1.00;;;22.50;54.70;;;;;;4430061;32;20130;-68
2022/06/17 04:11:34;;;;;;;1.40;1.00;;;22.50;54.70;;;;;;4429697;32;20504;-68
2022/06/17 04:14:04;;;;;;;1.95;1.20;;;22.50;54.70;;;;;;4429970;32;20088;-68
2022/06/17 04:16:59;;;;;;;1.55;1.13;;;22.50;54.70;;;;;;4429349;32;20412;-68
2022/06/17 04:19:28;;;;;;;1.90;1.33;;;22.50;54.70;;;;;;4429985;32;20141;-68
2022/06/17 04:22:12;;;;;;;2.05;1.40;;;22.50;54.80;;;;;;4429833;32;20083;-68
2022/06/17 04:24:38;;;;;;;1.40;1.30;;;22.50;54.70;;;;;;4429953;32;20504;-68
2022/06/17 04:27:07;;;;;;;1.95;1.30;;;22.50;54.70;;;;;;4429757;32;20070;-68
2022/06/17 04:29:43;;;;;;;1.25;1.15;;;22.50;54.80;;;;;;4429682;32;20089;-68
2022/06/17 04:32:28;;;;;;;2.67;1.13;;;22.50;54.80;;;;;;4430093;32;20232;-67
2022/06/17 04:34:53;;;;;;;2.03;1.10;;;22.40;55.60;;;;;;4429632;32;20232;-68
2022/06/17 04:37:22;;;;;;;1.77;1.30;;;22.40;54.70;;;;;;4429746;32;20084;-68
2022/06/17 04:39:56;;;;;;;1.58;1.10;;;22.40;54.80;;;;;;4429932;32;20093;-68
2022/06/17 04:42:30;;;;;;;1.95;1.10;;;22.40;54.80;;;;;;4429528;32;20666;-68
2022/06/17 04:44:56;;;;;;;2.83;1.30;;;22.40;54.80;;;;;;4429890;32;20540;-68
2022/06/17 04:47:22;;;;;;;1.75;1.10;;;22.40;54.80;;;;;;4429927;32;20067;-68
2022/06/17 04:49:55;;;;;;;1.70;1.40;;;22.40;54.80;;;;;;4430080;32;20097;-68
2022/06/17 04:52:30;;;;;;;1.85;1.10;;;22.40;54.80;;;;;;4429345;32;20074;-72
2022/06/17 04:54:59;;;;;;;1.30;1.00;;;22.40;54.80;;;;;;4429817;32;20077;-68
2022/06/17 04:57:29;;;;;;;1.17;1.08;;;22.40;54.80;;;;;;4429616;32;20090;-68
2022/06/17 04:59:58;;;;;;;1.10;1.00;;;22.40;54.80;;;;;;4429818;32;20079;-68
2022/06/17 05:02:30;;;;;;;1.20;1.10;;;22.40;54.80;;;;;;4429691;32;20093;-68
2022/06/17 05:04:59;;;;;;;1.98;1.23;;;22.40;54.90;;;;;;4429610;32;20066;-67
2022/06/17 05:07:30;;;;;;;1.20;0.95;;;22.40;54.90;;;;;;4429491;32;20075;-68
2022/06/17 05:10:07;;;;;;;1.10;1.00;;;22.40;54.90;;;;;;4429710;32;20164;-68
2022/06/17 05:12:40;;;;;;;2.88;1.10;;;22.40;54.90;;;;;;4429641;32;20144;-68
2022/06/17 05:15:15;;;;;;;1.35;1.10;;;22.40;54.90;;;;;;4429317;32;20089;-68
2022/06/17 05:17:41;;;;;;;1.45;1.10;;;22.40;54.90;;;;;;4429507;32;20118;-68
2022/06/17 05:20:12;;;;;;;1.80;1.30;;;22.40;54.90;;;;;;4429148;32;20096;-68
2022/06/17 05:22:41;;;;;;;1.95;1.17;;;22.40;54.90;;;;;;4429207;32;20275;-67
2022/06/17 05:25:13;;;;;;;1.30;0.93;;;22.40;55.00;;;;;;4429723;32;20063;-68
2022/06/17 05:27:39;;;;;;;1.23;1.02;;;22.40;55.00;;;;;;4429648;32;20097;-68
2022/06/17 05:30:06;;;;;;;2.33;1.30;;;22.40;55.90;;;;;;4432210;32;20071;-68
2022/06/17 05:32:32;;;;;;;2.47;0.98;;;22.40;55.00;;;;;;4418307;32;20094;-68
2022/06/17 05:34:58;;;;;;;1.48;0.90;;;22.40;55.00;;;;;;4432026;32;20502;-68
2022/06/17 05:37:24;;;;;;;1.65;1.15;;;22.30;55.00;;;;;;4432293;32;20078;-68
2022/06/17 05:39:50;;;;;;;1.38;0.95;;;22.30;55.00;;;;;;4432144;32;20071;-68
2022/06/17 05:42:16;;;;;;;1.10;1.00;;;22.30;55.00;;;;;;4432288;32;20492;-68
2022/06/17 05:44:42;;;;;;;1.33;1.10;;;22.30;55.00;;;;;;4432019;32;20292;-68
2022/06/17 05:47:15;;;;;;;1.85;1.10;;;22.30;55.00;;;;;;4432216;32;20074;-71
2022/06/17 05:49:41;;;;;;;1.20;1.10;;;22.30;55.90;;;;;;4432127;32;20098;-68
2022/06/17 05:52:09;;;;;;;2.08;1.42;;;22.30;55.00;;;;;;4431978;32;20560;-67
2022/06/17 05:54:35;;;;;;;1.13;1.02;;;22.30;55.00;;;;;;4418118;32;20520;-68
2022/06/17 05:57:01;;;;;;;1.42;1.00;;;22.30;55.00;;;;;;4432126;32;20125;-68
2022/06/17 05:59:27;;;;;;;1.80;1.08;;;22.30;55.40;;;;;;4431904;32;20141;-68
2022/06/17 06:01:53;;;;;;;1.40;1.20;;;22.30;55.10;;;;;;4432033;32;20058;-68
2022/06/17 06:04:18;;;;;;;1.20;0.90;;;22.30;55.10;;;;;;4431777;32;20110;-68
2022/06/17 06:06:44;;;;;;;1.50;1.10;;;22.30;55.10;;;;;;4431723;32;20484;-68
2022/06/17 06:09:10;;;;;;;1.42;0.95;;;22.30;56.00;;;;;;4431884;32;20067;-68
2022/06/17 06:11:36;;;;;;;1.17;1.08;;;22.30;55.10;;;;;;4431325;32;20076;-68
2022/06/17 06:14:02;;;;;;;1.65;1.02;;;22.30;55.10;;;;;;4431706;32;20094;-68
2022/06/17 06:16:29;;;;;;;1.00;0.90;;;22.30;55.10;;;;;;4431654;32;20148;-68
2022/06/17 06:18:54;;;;;;;1.30;1.00;;;22.30;55.10;;;;;;4431903;32;20212;-69
2022/06/17 06:21:21;;;;;;;1.65;1.10;;;22.30;55.10;;;;;;4431559;32;20126;-68
2022/06/17 06:23:47;;;;;;;1.42;1.23;;;22.30;55.20;;;;;;4417920;32;20070;-68
2022/06/17 06:26:16;;;;;;;1.10;0.95;;;22.30;55.20;;;;;;4431452;32;20580;-68
2022/06/17 06:28:42;;;;;;;2.65;1.42;;;22.30;55.20;;;;;;4431424;32;20129;-72
2022/06/17 06:31:22;;;;;;;2.10;1.23;;;22.30;55.20;;;;;;4431071;32;20168;-67
2022/06/17 06:33:48;;;;;;;1.48;1.20;;;22.20;55.20;;;;;;4431062;32;20062;-67
2022/06/17 06:36:14;;;;;;;4.03;1.80;;;22.20;55.20;;;;;;4431304;32;20224;-67
2022/06/17 06:38:40;;;;;;;3.35;1.52;;;22.20;55.30;;;;;;4431316;32;20075;-67
2022/06/17 06:41:06;;;;;;;2.45;1.58;;;22.20;55.40;;;;;;4431329;32;20081;-67
2022/06/17 06:43:33;;;;;;;2.67;1.73;;;22.20;55.50;;;;;;4431165;32;20464;-67
2022/06/17 06:46:03;;;;;;;4.00;1.88;;;22.20;55.60;;;;;;4431373;32;20141;-67
2022/06/17 06:48:29;;;;;;;4.18;1.98;;;22.20;55.80;;;;;;4431122;32;20228;-67
2022/06/17 06:50:55;;;;;;;3.08;1.80;;;22.20;55.80;;;;;;4404588;32;20067;-67
2022/06/17 06:53:20;;;;;;;3.67;1.80;;;22.20;55.90;;;;;;4431036;32;20078;-67
2022/06/17 06:55:48;;;;;;;2.75;2.00;;;22.20;55.90;;;;;;4431028;32;20193;-67
2022/06/17 06:58:17;;;;;;;4.07;1.98;;;22.20;56.00;;;;;;4417652;32;20505;-67
2022/06/17 07:00:49;;;;;;;3.67;2.00;;;22.20;56.20;;;;;;4430949;32;20078;-67
2022/06/17 07:03:17;;;;;;;7.07;1.90;;;22.20;56.20;;;;;;4431216;32;20101;-67
2022/06/17 07:05:45;;;;;;;3.58;2.10;;;22.20;56.30;;;;;;4430580;32;20435;-67
2022/06/17 07:08:13;;;;;;;3.47;2.20;;;22.20;56.30;;;;;;4430571;32;20157;-67
2022/06/17 07:10:40;;;;;;;5.35;2.20;;;22.20;56.40;;;;;;4417104;32;20094;-67
2022/06/17 07:13:08;;;;;;;3.20;1.90;;;22.20;56.50;;;;;;4430766;32;20097;-67
2022/06/17 07:15:36;;;;;;;2.42;1.80;;;22.20;56.50;;;;;;4430719;32;20416;-67
2022/06/17 07:18:04;;;;;;;7.05;2.15;;;22.20;56.50;;;;;;4430672;32;20087;-68
2022/06/17 07:20:42;;;;;;;3.83;2.20;;;22.20;56.40;;;;;;4430621;32;20404;-67
2022/06/17 07:23:11;;;;;;;3.97;2.20;;;22.20;56.30;;;;;;4430778;32;20177;-67
2022/06/17 07:25:38;;;;;;;7.80;1.88;;;22.20;56.30;;;;;;4416522;32;20216;-67
2022/06/17 07:28:04;;;;;;;4.13;1.73;;;22.20;56.30;;;;;;4430797;32;20086;-71
2022/06/17 07:30:32;;;;;;;3.65;2.10;;;22.20;56.30;;;;;;4430447;32;20086;-67
2022/06/17 07:32:58;;;;;;;3.25;2.00;;;22.20;56.40;;;;;;4430293;32;20070;-68
2022/06/17 07:35:24;;;;;;;2.42;1.75;;;22.20;56.30;;;;;;4430573;32;20396;-67
2022/06/17 07:40:35;;;;;;;3.13;2.00;;;22.20;56.30;;;;;;4430678;32;20216;-67
2022/06/17 07:43:03;;;;;;;5.30;2.55;;;22.20;56.30;;;;;;4430258;32;20078;-67
2022/06/17 07:45:31;;;;;;;4.07;2.25;;;22.20;56.30;;;;;;4430291;32;20086;-65
2022/06/17 07:47:58;;;;;;;5.85;2.28;;;22.20;56.30;;;;;;4416246;32;20413;-69
2022/06/17 07:50:31;;;;;;;5.00;2.70;;;22.20;56.30;;;;;;4430009;32;20083;-67
2022/06/17 07:52:57;;;;;;;4.63;2.17;;;22.20;56.20;;;;;;4430279;32;20074;-67
2022/06/17 07:55:23;;;;;;;3.20;2.03;;;22.20;56.20;;;;;;4430120;32;20062;-67
2022/06/17 07:57:50;;;;;;;5.72;2.40;;;22.20;56.10;;;;;;4430118;32;20228;-67
2022/06/17 08:00:29;;;;;;;5.88;2.47;;;22.20;56.10;;;;;;4430089;32;20408;-67
2022/06/17 08:02:55;;;;;;;4.15;2.58;;;22.20;56.10;;;;;;4429815;32;20582;-68
2022/06/17 08:05:21;;;;;;;5.22;2.45;;;22.20;56.10;;;;;;4430045;32;20062;-67
2022/06/17 08:07:52;;;;;;;4.97;2.60;;;22.30;56.20;;;;;;4430059;32;20089;-67
2022/06/17 08:10:21;;;;;;;4.57;2.42;;;22.30;56.20;;;;;;4430307;32;20090;-67
2022/06/17 08:12:47;;;;;;;7.25;2.83;;;22.20;56.20;;;;;;4430092;32;20090;-67
2022/06/17 08:15:13;;;;;;;3.05;2.20;;;22.30;56.30;;;;;;4429925;32;20385;-67
2022/06/17 08:17:40;;;;;;;2.78;1.98;;;22.30;56.30;;;;;;4429930;32;20078;-67
2022/06/17 08:20:19;;;;;;;5.45;2.63;;;22.30;56.30;;;;;;4429849;32;20067;-67
2022/06/17 08:22:45;;;;;;;3.83;2.17;;;22.30;56.30;;;;;;4430258;32;20180;-67
2022/06/17 08:25:13;;;;;;;5.10;2.10;;;22.30;56.30;;;;;;4429772;32;20126;-67
2022/06/17 08:27:43;;;;;;;4.15;2.20;;;22.30;56.40;;;;;;4429789;32;20101;-67
2022/06/17 08:30:10;;;;;;;3.85;2.40;;;22.40;56.60;;;;;;4429930;32;20094;-67
2022/06/17 08:32:45;;;;;;;5.32;2.20;;;22.40;56.50;;;;;;4429926;32;20496;-67
2022/06/17 08:35:16;;;;;;;5.22;2.28;;;22.40;56.40;;;;;;4429598;32;20208;-67
2022/06/17 08:37:44;;;;;;;4.15;2.13;;;22.40;56.40;;;;;;4429664;32;20142;-67
2022/06/17 08:40:38;;;;;;;3.85;2.03;;;22.40;56.40;;;;;;4429875;32;20066;-67
2022/06/17 08:43:07;;;;;;;4.72;2.45;;;22.40;56.40;;;;;;4421452;32;20214;-67
2022/06/17 08:45:52;;;;;;;3.85;2.30;;;22.40;56.40;;;;;;4429592;32;20098;-68
2022/06/17 08:48:29;;;;;;;3.90;2.13;;;22.50;56.50;;;;;;4429911;32;20071;-67
2022/06/17 08:51:18;;;;;;;6.18;2.35;;;22.50;56.50;;;;;;4429773;32;20078;-67
2022/06/17 08:54:32;;;;;;;5.18;2.47;;;22.50;56.50;;;;;;4429540;32;20224;-67
2022/06/17 08:57:28;;;;;;;4.60;2.47;;;22.50;56.40;;;;;;4374378;32;20135;-67
2022/06/17 09:00:18;;;;;;;5.70;2.28;;;22.50;56.40;;;;;;4429785;32;20070;-67
2022/06/17 09:02:59;;;;;;;4.38;2.13;;;22.50;56.40;;;;;;4430646;32;20109;-66
2022/06/17 09:05:40;;;;;;;5.90;2.60;;;22.50;56.40;;;;;;4432605;32;20078;-71
2022/06/17 09:08:17;;;;;;;5.28;2.47;;;22.50;56.40;;;;;;4432617;32;20128;-67
2022/06/17 09:10:58;;;;;;;5.97;2.55;;;22.50;56.30;;;;;;4432376;32;20164;-67
2022/06/17 09:13:50;;;;;;;3.95;2.00;;;22.50;56.30;;;;;;4432729;32;20070;-67
2022/06/17 09:16:18;;;;;;;4.60;1.90;;;22.50;56.20;;;;;;4408719;32;20562;-67
2022/06/17 09:18:48;;;;;;;4.65;2.58;;;22.50;56.20;;;;;;4432699;32;20504;-67
2022/06/17 09:21:20;;;;;;;6.10;2.65;;;22.50;56.20;;;;;;4432400;32;20083;-67
2022/06/17 09:23:45;;;;;;;5.03;2.13;;;22.50;56.10;;;;;;4432231;32;20153;-67
2022/06/17 09:26:21;;;;;;;2.65;2.28;;;22.50;56.10;;;;;;4432347;32;20130;-67
2022/06/17 09:28:56;;;;;;;4.68;2.22;;;22.50;56.20;;;;;;4432464;32;20079;-67
2022/06/17 09:31:47;;;;;;;5.15;2.72;;;22.50;56.20;;;;;;4432308;32;20162;-67
2022/06/17 09:34:38;;;;;;;5.93;2.53;;;22.50;56.20;;;;;;4431867;32;20079;-67
2022/06/17 09:37:14;;;;;;;3.83;2.55;;;22.50;56.40;;;;;;4432009;32;20173;-67
2022/06/17 09:39:43;;;;;;;4.63;2.67;;;22.50;56.40;;;;;;4432559;32;20085;-67
2022/06/17 09:42:20;;;;;;;5.95;3.08;;;22.60;56.40;;;;;;4432287;32;20082;-68
2022/06/17 09:44:58;;;;;;;4.40;2.78;;;22.60;56.50;;;;;;4433721;32;20228;-68
2022/06/17 09:47:37;;;;;;;4.50;2.95;;;22.60;56.50;;;;;;4433653;32;20086;-67
2022/06/17 09:50:39;;;;;;;5.68;3.13;;;22.60;56.30;;;;;;4433995;32;20074;-67
2022/06/17 09:53:10;;;;;;;3.53;2.55;;;22.60;56.20;;;;;;4433447;32;20105;-69
2022/06/17 09:55:42;;;;;;;6.80;2.70;;;22.70;56.20;;;;;;4433335;32;20089;-68
2022/06/17 09:58:16;;;;;;;9.60;3.42;;;22.60;56.10;;;;;;4431986;32;20193;-68
2022/06/17 10:00:47;;;;;;;7.18;2.90;;;22.70;56.10;;;;;;4431835;32;20141;-68
2022/06/17 10:03:30;;;;;;;4.32;2.60;;;22.70;56.10;;;;;;4432219;32;20139;-68
2022/06/17 10:06:30;;;;;;;3.78;2.55;;;22.70;56.10;;;;;;4431767;32;20483;-67
2022/06/17 10:08:56;;;;;;;5.13;2.50;;;22.70;56.20;;;;;;4431432;32;20093;-68
2022/06/17 10:11:43;;;;;;;5.15;2.75;;;22.70;56.20;;;;;;4431687;32;20107;-69
2022/06/17 10:14:45;;;;;;;4.85;2.50;;;22.70;56.40;;;;;;4431429;32;20142;-68
2022/06/17 10:20:44;;;;;;;4.30;2.83;;;22.70;56.40;;;;;;4431641;32;20412;-68
2022/06/17 10:23:22;;;;;;;4.20;2.40;;;22.70;56.50;;;;;;4431673;32;20508;-69
2022/06/17 10:26:00;;;;;;;3.78;2.72;;;22.70;56.50;;;;;;4431883;32;20110;-68
2022/06/17 10:28:49;;;;;;;4.47;2.60;;;22.70;56.50;;;;;;4431739;32;20133;-68
2022/06/17 10:31:27;;;;;;;3.28;2.58;;;22.70;56.60;;;;;;4431231;32;20086;-68
2022/06/17 10:33:56;;;;;;;4.65;2.80;;;22.70;56.50;;;;;;4431118;32;20148;-68
2022/06/17 10:36:22;;;;;;;3.80;2.80;;;22.70;56.60;;;;;;4417723;32;20445;-68
2022/06/17 10:38:48;;;;;;;3.42;2.53;;;22.70;56.60;;;;;;4431498;32;20424;-68
2022/06/17 10:41:16;;;;;;;3.00;2.70;;;22.60;56.50;;;;;;4431301;32;20100;-68
2022/06/17 10:43:49;;;;;;;3.53;2.53;;;22.70;56.60;;;;;;4431152;32;20189;-68
2022/06/17 10:46:20;;;;;;;4.30;2.60;;;22.70;56.60;;;;;;4430994;32;20073;-69
2022/06/17 10:49:01;;;;;;;4.10;2.67;;;22.70;56.50;;;;;;4417552;32;20074;-69
2022/06/17 10:51:28;;;;;;;6.15;2.83;;;22.70;56.50;;;;;;4431120;32;20074;-68
2022/06/17 10:54:02;;;;;;;5.13;2.67;;;22.70;56.50;;;;;;4430794;32;20134;-66
2022/06/17 10:56:33;;;;;;;4.90;2.40;;;22.70;57.40;;;;;;4431153;32;20062;-68
2022/06/17 10:59:06;;;;;;;5.18;2.83;;;22.80;56.50;;;;;;4431112;32;20499;-68
2022/06/17 11:01:52;;;;;;;5.53;2.63;;;22.80;56.50;;;;;;4431249;32;20508;-68
2022/06/17 11:04:24;;;;;;;5.35;2.30;;;22.80;56.60;;;;;;4430977;32;20164;-69
2022/06/17 11:06:57;;;;;;;5.05;2.65;;;22.80;56.30;;;;;;4430607;32;20078;-69
2022/06/17 11:09:37;;;;;;;5.47;2.95;;;22.80;56.20;;;;;;4430857;32;20130;-69
2022/06/17 11:12:14;;;;;;;4.22;2.15;;;22.80;56.20;;;;;;4430733;32;20093;-69
2022/06/17 11:14:45;;;;;;;4.85;2.80;;;22.90;56.20;;;;;;4431116;32;20070;-69
2022/06/17 11:17:20;;;;;;;7.53;2.70;;;22.90;56.20;;;;;;4430697;32;20220;-69
2022/06/17 11:19:54;;;;;;;5.78;2.80;;;22.90;56.10;;;;;;4430391;32;20075;-68
2022/06/17 11:22:25;;;;;;;4.88;2.60;;;23.00;56.10;;;;;;4430791;32;20504;-68
2022/06/17 11:25:05;;;;;;;5.22;2.50;;;23.00;56.00;;;;;;4430690;32;20075;-72
2022/06/17 11:27:54;;;;;;;6.80;2.85;;;23.00;56.10;;;;;;4430586;32;20086;-69
2022/06/17 11:30:23;;;;;;;5.15;3.20;;;23.00;56.10;;;;;;4401678;32;20184;-68
2022/06/17 11:32:49;;;;;;;6.25;2.58;;;23.10;56.00;;;;;;4430906;32;20058;-68
2022/06/17 11:35:19;;;;;;;4.55;2.85;;;23.10;55.90;;;;;;4429946;32;20161;-69
2022/06/17 11:37:48;;;;;;;5.95;2.95;;;23.10;55.90;;;;;;4430685;32;20094;-69
2022/06/17 11:40:18;;;;;;;6.95;2.80;;;23.20;55.80;;;;;;4430368;32;20428;-69
2022/06/17 11:42:49;;;;;;;5.38;2.50;;;23.20;56.70;;;;;;4416693;32;20066;-69
2022/06/17 11:45:22;;;;;;;5.68;2.83;;;23.20;55.80;;;;;;4430424;32;20431;-69
2022/06/17 11:47:52;;;;;;;4.25;2.75;;;23.20;55.70;;;;;;4430717;32;20066;-69
2022/06/17 11:50:43;;;;;;;4.15;2.70;;;23.30;55.80;;;;;;4416380;32;20496;-68
2022/06/17 11:53:13;;;;;;;9.13;3.47;;;23.30;55.80;;;;;;4430655;32;20078;-68
2022/06/17 11:55:45;;;;;;;6.45;3.00;;;23.30;55.80;;;;;;4430493;32;20412;-69
2022/06/17 11:58:12;;;;;;;3.97;2.60;;;23.30;55.80;;;;;;4430415;32;20062;-68
2022/06/17 12:00:49;;;;;;;4.15;2.90;;;23.30;55.80;;;;;;4429903;32;20513;-69
2022/06/17 12:03:22;;;;;;;4.75;2.58;;;23.30;55.90;;;;;;4430372;32;20520;-69
2022/06/17 12:06:00;;;;;;;7.55;3.17;;;23.30;55.90;;;;;;4430448;32;20164;-68
2022/06/17 12:08:37;;;;;;;5.70;3.20;;;23.40;56.10;;;;;;4430348;32;20093;-69
2022/06/17 12:11:12;;;;;;;4.30;3.03;;;23.40;56.00;;;;;;4429824;32;20125;-70
2022/06/17 12:13:40;;;;;;;4.35;3.08;;;23.40;56.10;;;;;;4430109;32;20079;-70
2022/06/17 12:16:09;;;;;;;4.07;2.90;;;23.40;56.10;;;;;;4429929;32;20074;-70
2022/06/17 12:18:58;;;;;;;7.68;2.90;;;23.40;56.00;;;;;;4429853;32;20090;-68
2022/06/17 12:21:46;;;;;;;5.18;3.10;;;23.40;55.90;;;;;;4430227;32;20082;-68
2022/06/17 12:24:23;;;;;;;4.28;3.03;;;23.50;55.90;;;;;;4430083;32;20689;-68
2022/06/17 12:26:59;;;;;;;3.83;3.35;;;23.50;55.80;;;;;;4416265;32;20082;-68
2022/06/17 12:29:45;;;;;;;4.15;2.85;;;23.50;55.70;;;;;;4415863;32;20097;-68
2022/06/17 12:32:19;;;;;;;3.78;2.88;;;23.50;55.60;;;;;;4429522;32;20098;-68
2022/06/17 12:35:03;;;;;;;4.95;3.10;;;23.50;55.50;;;;;;4429340;32;20488;-68
2022/06/17 12:37:50;;;;;;;6.57;2.67;;;23.60;55.40;;;;;;4429373;32;20172;-68
2022/06/17 12:40:16;;;;;;;5.05;2.88;;;23.60;56.20;;;;;;4429989;32;20125;-68
2022/06/17 12:42:45;;;;;;;3.80;2.88;;;23.60;55.30;;;;;;4415822;32;20339;-68
2022/06/17 12:45:20;;;;;;;6.95;2.88;;;23.60;55.20;;;;;;4429579;32;20304;-68
2022/06/17 12:48:14;;;;;;;5.88;2.78;;;23.60;55.10;;;;;;4429551;32;20066;-68
2022/06/17 12:53:55;;;;;;;3.72;2.40;;;23.60;54.80;;;;;;4429573;32;20082;-68
2022/06/17 12:56:33;;;;;;;4.75;2.90;;;23.60;54.70;;;;;;4429204;32;20208;-67
2022/06/17 12:59:05;;;;;;;5.45;2.83;;;23.60;54.50;;;;;;4429936;32;20209;-68
2022/06/17 13:01:31;;;;;;;5.40;2.88;;;23.60;54.50;;;;;;4429552;32;20697;-67
2022/06/17 13:04:15;;;;;;;6.72;3.13;;;23.60;54.50;;;;;;4429754;32;20082;-68
2022/06/17 13:06:52;;;;;;;4.30;2.55;;;23.60;54.40;;;;;;4429701;32;20547;-68
2022/06/17 13:09:40;;;;;;;3.60;2.53;;;23.60;54.50;;;;;;4429579;32;20106;-68
2022/06/17 13:12:13;;;;;;;6.13;2.95;;;23.60;54.50;;;;;;4429303;32;20082;-68
2022/06/17 13:14:53;;;;;;;3.78;2.60;;;23.60;54.60;;;;;;4429511;32;20075;-72
2022/06/17 13:17:27;;;;;;;4.63;2.80;;;23.60;54.70;;;;;;4429520;32;20074;-68
2022/06/17 13:20:02;;;;;;;3.72;2.60;;;23.60;54.70;;;;;;4429697;32;20122;-68
2022/06/17 13:22:35;;;;;;;4.55;2.63;;;23.60;54.80;;;;;;4429521;32;20507;-69
2022/06/17 13:25:09;;;;;;;4.70;2.63;;;23.60;54.80;;;;;;4429478;32;20083;-67
2022/06/17 13:27:47;;;;;;;4.95;2.80;;;23.60;54.80;;;;;;4429739;32;20063;-68